createdAt,value
2019-02-26T00:02:26.072Z,5.43
2019-02-26T00:05:41.386Z,5.43
2019-02-26T00:08:58.217Z,5.34
2019-02-26T00:12:10.994Z,5.41
2019-02-26T00:15:24.937Z,5.44
2019-02-26T00:18:38.773Z,5.37
2019-02-26T00:21:54.332Z,5.29
2019-02-26T00:25:10.445Z,5.16
2019-02-26T00:28:24.340Z,5.04
2019-02-26T00:31:38.153Z,4.95
2019-02-26T00:34:53.223Z,4.94
2019-02-26T00:38:08.961Z,4.92
2019-02-26T00:41:24.750Z,4.92
2019-02-26T00:44:39.199Z,4.89
2019-02-26T00:47:53.041Z,4.86
2019-02-26T00:51:06.859Z,4.85
2019-02-26T00:54:24.234Z,4.86
2019-02-26T00:57:38.367Z,4.81
2019-02-26T01:00:52.293Z,4.76
2019-02-26T01:04:06.156Z,4.74
2019-02-26T01:07:21.455Z,4.74
2019-02-26T01:10:37.536Z,4.70
2019-02-26T01:13:52.833Z,4.68
2019-02-26T01:17:08.208Z,4.59
2019-02-26T01:20:26.904Z,4.52
2019-02-26T01:23:38.773Z,4.47
2019-02-26T01:26:52.619Z,4.45
2019-02-26T01:30:12.535Z,4.43
2019-02-26T01:33:30.258Z,4.38
2019-02-26T01:36:46.787Z,4.35
2019-02-26T01:40:00.565Z,4.32
2019-02-26T01:43:14.377Z,4.29
2019-02-26T01:46:29.918Z,4.29
2019-02-26T01:49:44.641Z,4.28
2019-02-26T01:53:01.068Z,4.24
2019-02-26T01:56:15.035Z,4.16
2019-02-26T01:59:28.879Z,4.12
2019-02-26T02:02:42.841Z,4.07
2019-02-26T02:05:56.658Z,4.03
2019-02-26T02:09:13.438Z,3.96
2019-02-26T02:12:29.546Z,3.93
2019-02-26T02:15:42.714Z,3.91
2019-02-26T02:18:59.878Z,3.93
2019-02-26T02:22:14.665Z,3.92
2019-02-26T02:25:33.182Z,3.88
2019-02-26T02:28:45.014Z,3.88
2019-02-26T02:32:02.237Z,3.86
2019-02-26T02:35:17.873Z,3.79
2019-02-26T02:38:30.335Z,3.78
2019-02-26T02:41:45.449Z,3.72
2019-02-26T02:44:59.910Z,3.73
2019-02-26T02:48:14.239Z,3.64
2019-02-26T02:51:31.154Z,3.60
2019-02-26T02:54:47.026Z,3.65
2019-02-26T02:58:00.538Z,3.62
2019-02-26T03:01:16.637Z,3.57
2019-02-26T03:04:33.910Z,3.52
2019-02-26T03:07:50.442Z,3.44
2019-02-26T03:11:02.383Z,3.44
2019-02-26T03:14:18.534Z,3.41
2019-02-26T03:17:31.979Z,3.39
2019-02-26T03:20:45.802Z,3.35
2019-02-26T03:24:00.854Z,3.28
2019-02-26T03:27:15.381Z,3.31
2019-02-26T03:30:37.053Z,3.25
2019-02-26T03:33:45.092Z,3.19
2019-02-26T03:36:59.940Z,3.14
2019-02-26T03:40:14.747Z,3.12
2019-02-26T03:43:30.878Z,3.10
2019-02-26T03:46:44.296Z,3.06
2019-02-26T03:49:58.142Z,3.01
2019-02-26T03:53:11.967Z,2.96
2019-02-26T03:56:25.916Z,2.92
2019-02-26T03:59:39.899Z,2.90
2019-02-26T04:02:53.815Z,2.89
2019-02-26T04:06:09.995Z,2.84
2019-02-26T04:09:23.423Z,2.82
2019-02-26T04:12:41.942Z,2.80
2019-02-26T04:15:56.237Z,2.76
2019-02-26T04:19:09.446Z,2.76
2019-02-26T04:22:29.511Z,2.85
2019-02-26T04:25:52.097Z,2.75
2019-02-26T04:29:12.527Z,2.79
2019-02-26T04:32:35.589Z,2.71
2019-02-26T04:35:58.271Z,2.74
2019-02-26T04:39:30.927Z,2.67
2019-02-26T04:43:12.910Z,2.59
2019-02-26T04:46:31.638Z,2.54
2019-02-26T04:49:46.551Z,2.55
2019-02-26T04:53:04.438Z,2.52
2019-02-26T04:56:16.626Z,2.48
2019-02-26T04:59:32.412Z,2.45
2019-02-26T05:02:47.286Z,2.44
2019-02-26T05:06:03.092Z,2.45
2019-02-26T05:09:17.666Z,2.44
2019-02-26T05:12:33.991Z,2.44
2019-02-26T05:15:47.243Z,2.43
2019-02-26T05:19:02.982Z,2.39
2019-02-26T05:22:16.828Z,2.37
2019-02-26T05:25:31.481Z,2.33
2019-02-26T05:28:48.961Z,2.28
2019-02-26T05:32:04.232Z,2.24
2019-02-26T05:35:20.327Z,2.23
2019-02-26T05:38:34.883Z,2.22
2019-02-26T05:41:52.300Z,2.21
2019-02-26T05:45:06.880Z,2.17
2019-02-26T05:48:23.051Z,2.20
2019-02-26T05:51:38.222Z,2.24
2019-02-26T05:54:52.755Z,2.35
2019-02-26T05:58:07.443Z,2.49
2019-02-26T06:01:25.870Z,2.38
2019-02-26T06:04:41.097Z,2.34
2019-02-26T06:07:55.998Z,2.36
2019-02-26T06:11:09.848Z,2.33
2019-02-26T06:14:25.466Z,2.37
2019-02-26T06:17:43.071Z,2.39
2019-02-26T06:20:55.922Z,2.42
2019-02-26T06:24:10.958Z,2.40
2019-02-26T06:27:27.276Z,2.35
2019-02-26T06:30:40.615Z,2.34
2019-02-26T06:33:54.429Z,2.34
2019-02-26T06:37:16.681Z,2.37
2019-02-26T06:40:34.448Z,2.35
2019-02-26T06:43:48.371Z,2.44
2019-02-26T06:47:04.587Z,2.54
2019-02-26T06:50:19.009Z,2.56
2019-02-26T06:53:33.279Z,2.67
2019-02-26T06:56:49.071Z,2.72
2019-02-26T07:00:06.767Z,2.79
2019-02-26T07:03:24.202Z,2.93
2019-02-26T07:06:38.003Z,2.92
2019-02-26T07:09:52.007Z,3.09
2019-02-26T07:13:07.441Z,3.19
2019-02-26T07:16:21.616Z,3.28
2019-02-26T07:19:36.315Z,3.45
2019-02-26T07:22:51.668Z,3.58
2019-02-26T07:26:07.835Z,3.70
2019-02-26T07:29:21.695Z,3.83
2019-02-26T07:32:36.062Z,4.01
2019-02-26T07:35:52.269Z,4.21
2019-02-26T07:39:07.244Z,4.36
2019-02-26T07:42:21.100Z,4.52
2019-02-26T07:45:34.939Z,4.60
2019-02-26T07:48:53.530Z,4.75
2019-02-26T07:52:06.854Z,4.92
2019-02-26T07:55:20.301Z,5.07
2019-02-26T07:58:36.072Z,5.23
2019-02-26T08:01:49.855Z,5.34
2019-02-26T08:05:04.868Z,5.54
2019-02-26T08:08:20.915Z,5.72
2019-02-26T08:11:36.257Z,5.85
2019-02-26T08:14:50.264Z,5.99
2019-02-26T08:18:05.313Z,6.14
2019-02-26T08:21:21.735Z,6.31
2019-02-26T08:24:35.099Z,6.45
2019-02-26T08:27:52.156Z,6.58
2019-02-26T08:31:06.706Z,6.72
2019-02-26T08:34:20.682Z,6.90
2019-02-26T08:37:34.487Z,7.05
2019-02-26T08:40:48.443Z,7.21
2019-02-26T08:44:02.392Z,7.27
2019-02-26T08:47:18.592Z,7.53
2019-02-26T08:50:33.402Z,7.67
2019-02-26T08:53:49.505Z,7.93
2019-02-26T08:57:03.792Z,8.03
2019-02-26T09:00:20.144Z,8.27
2019-02-26T09:03:40.364Z,8.35
2019-02-26T09:06:51.859Z,8.66
2019-02-26T09:10:10.676Z,8.78
2019-02-26T09:13:25.534Z,9.03
2019-02-26T09:16:39.652Z,9.21
2019-02-26T09:20:06.266Z,9.40
2019-02-26T09:23:09.324Z,9.55
2019-02-26T09:26:23.220Z,9.71
2019-02-26T09:29:41.209Z,9.89
2019-02-26T09:32:54.711Z,10.14
2019-02-26T09:36:10.750Z,10.34
2019-02-26T09:39:24.332Z,10.49
2019-02-26T09:42:38.185Z,10.67
2019-02-26T09:45:52.905Z,10.86
2019-02-26T09:49:11.941Z,11.00
2019-02-26T09:52:25.684Z,11.22
2019-02-26T09:55:38.451Z,11.45
2019-02-26T09:58:52.408Z,11.63
2019-02-26T10:02:06.291Z,11.82
2019-02-26T10:05:20.113Z,12.24
2019-02-26T10:08:33.959Z,12.65
2019-02-26T10:11:49.240Z,13.07
2019-02-26T10:15:06.834Z,13.54
2019-02-26T10:18:21.498Z,14.08
2019-02-26T10:21:37.586Z,14.69
2019-02-26T10:24:52.194Z,16.23
2019-02-26T10:28:08.795Z,17.76
2019-02-26T10:31:25.067Z,19.05
2019-02-26T10:34:37.605Z,20.41
2019-02-26T10:37:57.069Z,21.67
2019-02-26T10:41:11.900Z,22.47
2019-02-26T10:44:25.790Z,22.31
2019-02-26T10:47:39.628Z,20.95
2019-02-26T10:50:53.470Z,22.84
2019-02-26T10:54:09.650Z,24.39
2019-02-26T10:57:23.045Z,24.60
2019-02-26T11:00:38.011Z,25.98
2019-02-26T11:03:55.079Z,26.93
2019-02-26T11:07:09.298Z,27.81
2019-02-26T11:10:25.232Z,27.01
2019-02-26T11:13:40.719Z,28.88
2019-02-26T11:16:55.238Z,29.14
2019-02-26T11:20:12.177Z,29.43
2019-02-26T11:23:30.961Z,30.16
2019-02-26T11:26:43.873Z,29.79
2019-02-26T11:29:59.503Z,31.13
2019-02-26T11:33:15.467Z,30.51
2019-02-26T11:36:31.283Z,30.80
2019-02-26T11:39:44.814Z,31.51
2019-02-26T11:43:00.214Z,31.79
2019-02-26T11:46:14.409Z,32.74
2019-02-26T11:49:28.262Z,30.43
2019-02-26T11:52:42.162Z,32.28
2019-02-26T11:55:56.931Z,31.52
2019-02-26T11:59:14.348Z,31.68
2019-02-26T12:02:33.409Z,30.88
2019-02-26T12:05:43.620Z,33.16
2019-02-26T12:08:57.459Z,34.97
2019-02-26T12:12:11.657Z,34.33
2019-02-26T12:15:27.117Z,35.71
2019-02-26T12:18:44.346Z,36.01
2019-02-26T12:22:01.311Z,35.99
2019-02-26T12:25:15.422Z,37.10
2019-02-26T12:28:32.472Z,36.24
2019-02-26T12:31:45.022Z,37.91
2019-02-26T12:34:58.894Z,35.22
2019-02-26T12:38:20.591Z,34.84
2019-02-26T12:41:28.460Z,38.88
2019-02-26T12:44:45.241Z,37.54
2019-02-26T12:47:58.234Z,37.54
2019-02-26T12:51:12.462Z,39.31
2019-02-26T12:54:26.897Z,40.01
2019-02-26T12:57:43.203Z,39.64
2019-02-26T13:00:58.485Z,37.47
2019-02-26T13:04:13.993Z,38.73
2019-02-26T13:07:28.134Z,37.40
2019-02-26T13:10:46.280Z,39.65
2019-02-26T13:13:57.904Z,39.70
2019-02-26T13:17:13.881Z,38.45
2019-02-26T13:20:27.707Z,40.26
2019-02-26T13:23:41.538Z,41.71
2019-02-26T13:26:59.269Z,40.85
2019-02-26T13:30:17.696Z,41.68
2019-02-26T13:33:36.960Z,41.26
2019-02-26T13:36:52.653Z,42.57
2019-02-26T13:40:06.874Z,43.63
2019-02-26T13:43:20.739Z,41.50
2019-02-26T13:46:34.914Z,37.58
2019-02-26T13:49:49.048Z,39.90
2019-02-26T13:53:03.501Z,42.05
2019-02-26T13:56:17.469Z,43.82
2019-02-26T13:59:31.317Z,38.20
2019-02-26T14:02:45.258Z,44.28
2019-02-26T14:05:59.122Z,43.51
2019-02-26T14:09:12.982Z,41.29
2019-02-26T14:12:26.817Z,44.01
2019-02-26T14:15:40.796Z,45.07
2019-02-26T14:18:54.655Z,44.18
2019-02-26T14:22:08.482Z,45.40
2019-02-26T14:25:22.768Z,46.28
2019-02-26T14:28:36.646Z,44.91
2019-02-26T14:31:50.511Z,43.41
2019-02-26T14:35:07.591Z,44.80
2019-02-26T14:38:21.526Z,45.27
2019-02-26T14:41:35.593Z,44.86
2019-02-26T14:44:49.454Z,44.86
2019-02-26T14:48:03.415Z,43.91
2019-02-26T14:51:17.815Z,41.62
2019-02-26T14:54:32.046Z,44.80
2019-02-26T14:57:45.972Z,44.96
2019-02-26T15:01:03.819Z,44.47
2019-02-26T15:04:17.909Z,43.34
2019-02-26T15:07:31.854Z,44.27
2019-02-26T15:10:45.826Z,46.17
2019-02-26T15:13:59.648Z,42.06
2019-02-26T15:17:13.595Z,41.86
2019-02-26T15:20:27.938Z,42.69
2019-02-26T15:23:41.787Z,43.80
2019-02-26T15:26:55.640Z,44.35
2019-02-26T15:30:12.811Z,42.46
2019-02-26T15:33:26.673Z,41.32
2019-02-26T15:36:40.801Z,33.20
2019-02-26T15:39:54.632Z,30.16
2019-02-26T15:43:08.504Z,28.94
2019-02-26T15:46:22.360Z,28.33
2019-02-26T15:49:37.773Z,26.96
2019-02-26T15:52:53.023Z,26.21
2019-02-26T15:56:07.656Z,25.81
2019-02-26T15:59:21.515Z,25.82
2019-02-26T16:02:36.824Z,25.15
2019-02-26T16:05:50.765Z,24.93
2019-02-26T16:09:05.239Z,24.38
2019-02-26T16:12:19.104Z,23.44
2019-02-26T16:15:34.256Z,23.12
2019-02-26T16:18:48.138Z,22.64
2019-02-26T16:22:01.971Z,22.45
2019-02-26T16:25:15.916Z,22.64
2019-02-26T16:28:29.779Z,22.15
2019-02-26T16:31:43.657Z,21.54
2019-02-26T16:34:57.525Z,21.10
2019-02-26T16:38:14.146Z,20.62
2019-02-26T16:41:27.867Z,20.23
2019-02-26T16:44:41.832Z,19.76
2019-02-26T16:47:57.299Z,19.54
2019-02-26T16:51:11.559Z,19.16
2019-02-26T16:54:26.053Z,18.81
2019-02-26T16:57:40.003Z,18.43
2019-02-26T17:00:53.988Z,18.03
2019-02-26T17:04:08.849Z,17.26
2019-02-26T17:07:22.974Z,17.26
2019-02-26T17:10:37.435Z,16.97
2019-02-26T17:13:51.381Z,16.65
2019-02-26T17:17:05.444Z,16.48
2019-02-26T17:20:19.581Z,16.27
2019-02-26T17:23:35.202Z,16.01
2019-02-26T17:26:49.681Z,15.78
2019-02-26T17:30:07.395Z,15.49
2019-02-26T17:33:21.374Z,15.19
2019-02-26T17:36:35.939Z,14.89
2019-02-26T17:39:49.971Z,14.69
2019-02-26T17:43:04.301Z,14.48
2019-02-26T17:46:18.279Z,14.27
2019-02-26T17:49:33.680Z,14.08
2019-02-26T17:52:48.046Z,13.87
2019-02-26T17:56:01.987Z,13.64
2019-02-26T17:59:16.863Z,13.53
2019-02-26T18:02:31.540Z,13.35
2019-02-26T18:05:51.233Z,13.22
2019-02-26T18:09:01.276Z,13.10
2019-02-26T18:12:15.102Z,12.97
2019-02-26T18:15:29.072Z,12.81
2019-02-26T18:18:43.044Z,12.64
2019-02-26T18:21:56.897Z,12.53
2019-02-26T18:25:13.583Z,12.41
2019-02-26T18:28:27.573Z,12.28
2019-02-26T18:31:41.592Z,12.15
2019-02-26T18:34:55.431Z,12.07
2019-02-26T18:38:09.371Z,11.96
2019-02-26T18:41:23.336Z,11.86
2019-02-26T18:44:37.201Z,11.72
2019-02-26T18:47:51.164Z,11.59
2019-02-26T18:51:05.786Z,11.25
2019-02-26T18:54:20.304Z,11.25
2019-02-26T18:57:35.239Z,11.17
2019-02-26T19:00:49.135Z,11.06
2019-02-26T19:04:03.176Z,11.01
2019-02-26T19:07:17.038Z,10.91
2019-02-26T19:10:31.114Z,10.79
2019-02-26T19:13:44.958Z,10.70
2019-02-26T19:16:58.862Z,10.61
2019-02-26T19:20:23.180Z,10.54
2019-02-26T19:23:37.156Z,10.45
2019-02-26T19:26:51.160Z,10.38
2019-02-26T19:30:11.005Z,10.32
2019-02-26T19:33:25.164Z,10.20
2019-02-26T19:36:39.069Z,10.11
2019-02-26T19:39:52.992Z,10.02
2019-02-26T19:43:09.654Z,9.89
2019-02-26T19:46:23.625Z,9.84
2019-02-26T19:49:39.782Z,9.74
2019-02-26T19:52:56.952Z,9.63
2019-02-26T19:56:09.270Z,9.51
2019-02-26T19:59:23.201Z,9.43
2019-02-26T20:02:37.087Z,9.35
2019-02-26T20:05:51.167Z,9.27
2019-02-26T20:09:06.462Z,9.15
2019-02-26T20:12:20.570Z,9.10
2019-02-26T20:15:34.420Z,9.02
2019-02-26T20:18:48.276Z,8.94
2019-02-26T20:22:02.249Z,8.84
2019-02-26T20:25:18.084Z,8.74
2019-02-26T20:28:35.232Z,8.66
2019-02-26T20:31:47.972Z,8.56
2019-02-26T20:35:02.820Z,8.51
2019-02-26T20:38:16.685Z,8.41
2019-02-26T20:41:30.550Z,8.39
2019-02-26T20:44:45.426Z,8.34
2019-02-26T20:48:03.845Z,8.26
2019-02-26T20:51:18.641Z,8.23
2019-02-26T20:54:32.829Z,8.18
2019-02-26T20:57:47.092Z,8.15
2019-02-26T21:01:00.978Z,8.10
2019-02-26T21:04:14.958Z,8.04
2019-02-26T21:07:28.814Z,8.00
2019-02-26T21:10:45.906Z,7.90
2019-02-26T21:14:01.364Z,7.85
2019-02-26T21:17:15.225Z,7.76
2019-02-26T21:20:29.190Z,7.67
2019-02-26T21:23:43.052Z,7.61
2019-02-26T21:26:57.037Z,7.57
2019-02-26T21:30:16.649Z,7.52
2019-02-26T21:33:31.323Z,7.45
2019-02-26T21:36:45.713Z,7.37
2019-02-26T21:39:59.541Z,7.31
2019-02-26T21:43:16.303Z,7.24
2019-02-26T21:46:30.153Z,7.19
2019-02-26T21:49:43.979Z,7.13
2019-02-26T21:52:59.656Z,7.09
2019-02-26T21:56:15.458Z,7.07
2019-02-26T21:59:32.596Z,7.05
2019-02-26T22:02:45.292Z,7.01
2019-02-26T22:06:05.344Z,7.03
2019-02-26T22:09:14.960Z,7.00
2019-02-26T22:12:28.848Z,7.00
2019-02-26T22:15:44.677Z,7.12
2019-02-26T22:18:58.461Z,7.13
2019-02-26T22:22:12.426Z,7.05
2019-02-26T22:25:26.281Z,7.08
2019-02-26T22:28:42.107Z,6.95
2019-02-26T22:31:55.941Z,6.79
2019-02-26T22:35:10.015Z,6.68
2019-02-26T22:38:23.864Z,6.58
2019-02-26T22:41:37.731Z,6.52
2019-02-26T22:44:54.639Z,6.42
2019-02-26T22:48:08.692Z,6.42
2019-02-26T22:51:22.698Z,6.34
2019-02-26T22:54:36.577Z,6.33
2019-02-26T22:57:50.450Z,6.31
2019-02-26T23:01:30.566Z,6.29
2019-02-26T23:04:41.171Z,6.28
2019-02-26T23:07:55.316Z,6.23
2019-02-26T23:11:10.441Z,6.18
2019-02-26T23:14:24.884Z,6.13
2019-02-26T23:17:39.337Z,6.06
2019-02-26T23:20:53.212Z,6.00
2019-02-26T23:24:07.161Z,5.94
2019-02-26T23:27:20.973Z,5.89
2019-02-26T23:30:34.867Z,5.85
2019-02-26T23:33:49.123Z,5.81
2019-02-26T23:37:04.568Z,5.74
2019-02-26T23:40:18.529Z,5.70
2019-02-26T23:43:32.443Z,5.69
2019-02-26T23:46:46.388Z,5.66
2019-02-26T23:50:00.289Z,5.61
2019-02-26T23:53:14.151Z,5.58
2019-02-26T23:56:28.009Z,5.55
2019-02-26T23:59:41.866Z,5.51
